sensor_id;sensor_type;location;lat;lon;timestamp;pressure;altitude;pressure_sealevel;temperature;humidity
40596;BME280;26304;48.794;9.820;2022-09-13T00:00:41;96055.25;;;19.19;58.65
40596;BME280;26304;48.794;9.820;2022-09-13T00:06:24;96061.28;;;19.16;58.59
40596;BME280;26304;48.794;9.820;2022-09-13T00:12:08;96056.38;;;19.11;58.82
40596;BME280;26304;48.794;9.820;2022-09-13T00:17:50;96034.47;;;19.29;58.24
40596;BME280;26304;48.794;9.820;2022-09-13T00:23:32;96026.59;;;19.25;58.18
40596;BME280;26304;48.794;9.820;2022-09-13T00:29:16;96010.09;;;19.06;58.42
40596;BME280;26304;48.794;9.820;2022-09-13T00:34:59;95988.66;;;19.01;58.69
40596;BME280;26304;48.794;9.820;2022-09-13T00:40:41;95995.00;;;19.18;58.28
40596;BME280;26304;48.794;9.820;2022-09-13T00:46:31;95996.19;;;19.02;58.42
40596;BME280;26304;48.794;9.820;2022-09-13T00:52:17;95998.41;;;19.15;58.13
40596;BME280;26304;48.794;9.820;2022-09-13T00:58:05;96004.88;;;18.96;58.84
40596;BME280;26304;48.794;9.820;2022-09-13T01:03:51;96005.19;;;19.05;58.55
40596;BME280;26304;48.794;9.820;2022-09-13T01:09:35;96008.25;;;18.93;58.76
40596;BME280;26304;48.794;9.820;2022-09-13T01:15:20;96001.47;;;18.92;58.43
40596;BME280;26304;48.794;9.820;2022-09-13T01:21:27;95993.19;;;18.97;58.30
40596;BME280;26304;48.794;9.820;2022-09-13T01:27:34;95987.19;;;18.96;58.45
40596;BME280;26304;48.794;9.820;2022-09-13T01:33:42;95981.88;;;19.00;58.32
40596;BME280;26304;48.794;9.820;2022-09-13T01:39:41;95987.53;;;19.02;58.05
40596;BME280;26304;48.794;9.820;2022-09-13T01:45:36;95980.06;;;18.90;58.18
40596;BME280;26304;48.794;9.820;2022-09-13T01:51:28;95978.91;;;18.76;58.77
40596;BME280;26304;48.794;9.820;2022-09-13T01:57:14;95983.09;;;18.63;59.13
40596;BME280;26304;48.794;9.820;2022-09-13T02:03:03;95987.22;;;18.71;58.62
40596;BME280;26304;48.794;9.820;2022-09-13T02:08:50;95989.50;;;18.65;59.00
40596;BME280;26304;48.794;9.820;2022-09-13T02:14:37;95984.22;;;18.62;58.74
40596;BME280;26304;48.794;9.820;2022-09-13T02:20:22;95974.03;;;18.71;58.38
40596;BME280;26304;48.794;9.820;2022-09-13T02:26:11;95977.47;;;18.61;58.79
40596;BME280;26304;48.794;9.820;2022-09-13T02:31:59;95973.69;;;18.62;58.68
40596;BME280;26304;48.794;9.820;2022-09-13T02:37:48;95972.22;;;18.57;59.04
40596;BME280;26304;48.794;9.820;2022-09-13T02:43:36;95972.56;;;18.66;58.50
40596;BME280;26304;48.794;9.820;2022-09-13T02:49:24;95964.31;;;18.50;58.65
40596;BME280;26304;48.794;9.820;2022-09-13T02:55:15;95974.50;;;18.37;58.92
40596;BME280;26304;48.794;9.820;2022-09-13T03:01:01;95968.47;;;18.40;58.39
40596;BME280;26304;48.794;9.820;2022-09-13T03:06:44;95979.41;;;18.21;59.18
40596;BME280;26304;48.794;9.820;2022-09-13T03:12:46;95972.25;;;18.32;58.39
40596;BME280;26304;48.794;9.820;2022-09-13T03:18:45;95966.22;;;18.13;60.49
40596;BME280;26304;48.794;9.820;2022-09-13T03:24:36;95963.19;;;18.47;59.27
40596;BME280;26304;48.794;9.820;2022-09-13T03:30:22;95955.72;;;18.21;59.79
40596;BME280;26304;48.794;9.820;2022-09-13T03:36:11;95955.72;;;18.24;59.20
40596;BME280;26304;48.794;9.820;2022-09-13T03:41:57;95962.50;;;18.14;59.03
40596;BME280;26304;48.794;9.820;2022-09-13T03:47:44;95958.69;;;18.30;59.18
40596;BME280;26304;48.794;9.820;2022-09-13T03:53:30;95955.69;;;18.28;59.03
40596;BME280;26304;48.794;9.820;2022-09-13T03:59:14;95954.59;;;18.11;59.29
40596;BME280;26304;48.794;9.820;2022-09-13T04:04:57;95963.59;;;18.31;59.06
40596;BME280;26304;48.794;9.820;2022-09-13T04:10:41;95964.72;;;18.23;58.98
40596;BME280;26304;48.794;9.820;2022-09-13T04:16:23;95963.25;;;18.22;58.99
40596;BME280;26304;48.794;9.820;2022-09-13T04:22:06;95974.50;;;18.08;59.57
40596;BME280;26304;48.794;9.820;2022-09-13T04:27:53;95972.63;;;17.94;59.91
40596;BME280;26304;48.794;9.820;2022-09-13T04:33:36;95953.09;;;18.06;59.20
40596;BME280;26304;48.794;9.820;2022-09-13T04:39:18;95949.66;;;17.73;60.46
40596;BME280;26304;48.794;9.820;2022-09-13T04:45:03;95954.16;;;17.69;60.47
40596;BME280;26304;48.794;9.820;2022-09-13T04:50:46;95941.38;;;17.64;60.65
40596;BME280;26304;48.794;9.820;2022-09-13T04:56:29;95945.91;;;17.60;60.93
40596;BME280;26304;48.794;9.820;2022-09-13T05:02:12;95958.69;;;17.79;60.70
40596;BME280;26304;48.794;9.820;2022-09-13T05:07:55;95963.22;;;18.04;59.86
40596;BME280;26304;48.794;9.820;2022-09-13T05:13:37;95966.25;;;18.21;59.32
40596;BME280;26304;48.794;9.820;2022-09-13T05:19:21;95958.34;;;18.28;59.34
40596;BME280;26304;48.794;9.820;2022-09-13T05:25:05;95969.97;;;18.38;58.75
40596;BME280;26304;48.794;9.820;2022-09-13T05:30:57;95985.75;;;18.48;59.24
40596;BME280;26304;48.794;9.820;2022-09-13T05:36:41;95988.03;;;18.46;58.80
40596;BME280;26304;48.794;9.820;2022-09-13T05:42:23;95999.28;;;18.50;58.73
40596;BME280;26304;48.794;9.820;2022-09-13T05:48:06;95997.41;;;18.47;58.67
40596;BME280;26304;48.794;9.820;2022-09-13T05:53:51;96001.91;;;18.50;58.68
40596;BME280;26304;48.794;9.820;2022-09-13T05:59:34;96007.56;;;18.52;58.86
40596;BME280;26304;48.794;9.820;2022-09-13T06:05:17;96014.31;;;18.54;58.68
40596;BME280;26304;48.794;9.820;2022-09-13T06:11:02;96017.34;;;18.56;58.80
40596;BME280;26304;48.794;9.820;2022-09-13T06:16:45;96017.72;;;18.58;58.77
40596;BME280;26304;48.794;9.820;2022-09-13T06:22:27;96013.19;;;18.58;58.71
40596;BME280;26304;48.794;9.820;2022-09-13T06:28:14;96002.28;;;18.60;58.50
40596;BME280;26304;48.794;9.820;2022-09-13T06:33:58;96006.78;;;18.63;58.87
40596;BME280;26304;48.794;9.820;2022-09-13T06:39:40;96014.69;;;18.63;59.01
40596;BME280;26304;48.794;9.820;2022-09-13T06:45:24;96017.31;;;18.63;58.71
40596;BME280;26304;48.794;9.820;2022-09-13T06:51:09;96024.47;;;18.66;58.93
40596;BME280;26304;48.794;9.820;2022-09-13T06:56:52;96014.31;;;18.68;58.68
40596;BME280;26304;48.794;9.820;2022-09-13T07:02:35;96008.28;;;18.67;58.85
40596;BME280;26304;48.794;9.820;2022-09-13T07:08:18;96009.78;;;18.72;59.16
40596;BME280;26304;48.794;9.820;2022-09-13T07:14:00;95995.50;;;18.73;58.79
40596;BME280;26304;48.794;9.820;2022-09-13T07:19:44;95997.75;;;18.71;59.07
40596;BME280;26304;48.794;9.820;2022-09-13T07:25:27;96001.13;;;18.75;58.92
40596;BME280;26304;48.794;9.820;2022-09-13T07:31:11;95985.69;;;18.77;58.90
40596;BME280;26304;48.794;9.820;2022-09-13T07:36:55;95979.31;;;18.78;58.97
40596;BME280;26304;48.794;9.820;2022-09-13T07:42:38;95999.22;;;18.79;58.97
40596;BME280;26304;48.794;9.820;2022-09-13T07:48:20;95998.47;;;18.82;58.78
40596;BME280;26304;48.794;9.820;2022-09-13T07:54:05;95986.09;;;18.86;58.87
40596;BME280;26304;48.794;9.820;2022-09-13T07:59:48;95982.31;;;18.87;58.97
40596;BME280;26304;48.794;9.820;2022-09-13T08:05:31;95989.84;;;18.89;58.97
40596;BME280;26304;48.794;9.820;2022-09-13T08:11:17;95985.69;;;18.92;58.93
40596;BME280;26304;48.794;9.820;2022-09-13T08:16:59;96002.25;;;18.96;58.54
40596;BME280;26304;48.794;9.820;2022-09-13T08:22:42;96007.13;;;18.97;58.74
40596;BME280;26304;48.794;9.820;2022-09-13T08:28:25;95996.22;;;18.99;58.75
40596;BME280;26304;48.794;9.820;2022-09-13T08:34:09;95984.91;;;19.02;58.83
40596;BME280;26304;48.794;9.820;2022-09-13T08:39:54;95999.19;;;19.04;58.82
40596;BME280;26304;48.794;9.820;2022-09-13T08:45:38;96007.84;;;19.05;58.72
40596;BME280;26304;48.794;9.820;2022-09-13T08:51:27;96008.22;;;19.07;58.86
40596;BME280;26304;48.794;9.820;2022-09-13T08:57:16;96002.94;;;19.07;58.68
40596;BME280;26304;48.794;9.820;2022-09-13T09:03:15;95990.88;;;19.10;58.81
40596;BME280;26304;48.794;9.820;2022-09-13T09:09:04;95988.25;;;19.13;58.83
40596;BME280;26304;48.794;9.820;2022-09-13T09:15:00;95983.34;;;19.15;58.74
40596;BME280;26304;48.794;9.820;2022-09-13T09:20:47;95973.56;;;19.16;58.70
40596;BME280;26304;48.794;9.820;2022-09-13T09:26:30;95980.31;;;19.20;58.87
40596;BME280;26304;48.794;9.820;2022-09-13T09:32:21;95988.56;;;19.22;58.80
40596;BME280;26304;48.794;9.820;2022-09-13T09:38:38;95978.41;;;19.24;58.84
40596;BME280;26304;48.794;9.820;2022-09-13T09:44:24;95983.31;;;19.26;59.11
40596;BME280;26304;48.794;9.820;2022-09-13T09:50:10;95982.94;;;19.28;58.63
40596;BME280;26304;48.794;9.820;2022-09-13T09:56:00;95990.06;;;19.31;59.12
40596;BME280;26304;48.794;9.820;2022-09-13T10:01:45;95974.25;;;19.31;58.78
40596;BME280;26304;48.794;9.820;2022-09-13T10:07:30;95975.72;;;19.39;59.07
40596;BME280;26304;48.794;9.820;2022-09-13T10:13:18;95957.66;;;19.37;59.15
40596;BME280;26304;48.794;9.820;2022-09-13T10:19:23;95964.75;;;19.44;59.53
40596;BME280;26304;48.794;9.820;2022-09-13T10:25:13;95967.66;;;19.60;59.33
40596;BME280;26304;48.794;9.820;2022-09-13T10:30:58;95980.41;;;19.76;59.38
40596;BME280;26304;48.794;9.820;2022-09-13T10:36:50;95982.25;;;19.87;59.17
40596;BME280;26304;48.794;9.820;2022-09-13T10:42:35;95983.69;;;19.95;58.92
40596;BME280;26304;48.794;9.820;2022-09-13T10:48:19;95988.16;;;20.02;58.33
40596;BME280;26304;48.794;9.820;2022-09-13T10:54:18;95981.31;;;20.08;58.44
40596;BME280;26304;48.794;9.820;2022-09-13T11:00:04;95965.41;;;20.15;58.25
40596;BME280;26304;48.794;9.820;2022-09-13T11:05:54;95963.09;;;20.24;58.06
40596;BME280;26304;48.794;9.820;2022-09-13T11:11:46;95965.69;;;20.31;58.25
40596;BME280;26304;48.794;9.820;2022-09-13T11:17:51;95961.81;;;20.40;57.92
40596;BME280;26304;48.794;9.820;2022-09-13T11:23:45;95957.28;;;20.44;58.06
40596;BME280;26304;48.794;9.820;2022-09-13T11:29:40;95962.84;;;20.49;57.96
40596;BME280;26304;48.794;9.820;2022-09-13T11:35:35;95962.06;;;20.53;57.87
40596;BME280;26304;48.794;9.820;2022-09-13T11:41:27;95951.13;;;20.54;57.80
40596;BME280;26304;48.794;9.820;2022-09-13T11:47:22;95953.69;;;20.61;57.79
40596;BME280;26304;48.794;9.820;2022-09-13T11:53:20;95965.34;;;20.67;57.82
40596;BME280;26304;48.794;9.820;2022-09-13T11:59:15;95953.72;;;20.58;58.42
40596;BME280;26304;48.794;9.820;2022-09-13T12:05:05;95939.84;;;20.50;58.61
40596;BME280;26304;48.794;9.820;2022-09-13T12:10:52;95962.41;;;20.58;58.59
40596;BME280;26304;48.794;9.820;2022-09-13T12:16:40;95973.91;;;20.79;58.30
40596;BME280;26304;48.794;9.820;2022-09-13T12:22:26;95971.97;;;20.83;58.56
40596;BME280;26304;48.794;9.820;2022-09-13T12:28:15;95957.25;;;20.85;58.42
40596;BME280;26304;48.794;9.820;2022-09-13T12:34:04;95931.50;;;20.90;58.33
40596;BME280;26304;48.794;9.820;2022-09-13T12:40:08;95912.63;;;20.91;58.66
40596;BME280;26304;48.794;9.820;2022-09-13T12:46:18;95917.47;;;20.96;58.48
40596;BME280;26304;48.794;9.820;2022-09-13T12:52:24;95920.03;;;21.03;58.68
40596;BME280;26304;48.794;9.820;2022-09-13T12:58:33;95931.28;;;21.08;58.92
40596;BME280;26304;48.794;9.820;2022-09-13T13:04:21;95931.25;;;21.11;58.75
40596;BME280;26304;48.794;9.820;2022-09-13T13:10:24;95929.09;;;21.02;59.10
40596;BME280;26304;48.794;9.820;2022-09-13T13:16:24;95912.16;;;21.00;58.82
40596;BME280;26304;48.794;9.820;2022-09-13T13:28:51;95886.53;;;21.24;58.73
40596;BME280;26304;48.794;9.820;2022-09-13T13:34:43;95870.97;;;21.30;58.74
40596;BME280;26304;48.794;9.820;2022-09-13T13:40:26;95865.97;;;21.35;58.62
40596;BME280;26304;48.794;9.820;2022-09-13T13:46:26;95857.25;;;21.38;58.78
40596;BME280;26304;48.794;9.820;2022-09-13T13:52:31;95847.72;;;21.45;58.42
40596;BME280;26304;48.794;9.820;2022-09-13T13:58:36;95851.50;;;21.44;58.60
40596;BME280;26304;48.794;9.820;2022-09-13T14:10:43;95839.06;;;21.40;58.85
40596;BME280;26304;48.794;9.820;2022-09-13T14:16:38;95828.97;;;21.35;59.14
40596;BME280;26304;48.794;9.820;2022-09-13T14:22:28;95826.56;;;21.45;58.82
40596;BME280;26304;48.794;9.820;2022-09-13T14:28:13;95821.50;;;21.54;59.07
40596;BME280;26304;48.794;9.820;2022-09-13T14:33:57;95823.72;;;21.59;58.82
40596;BME280;26304;48.794;9.820;2022-09-13T14:39:52;95824.13;;;21.57;58.87
40596;BME280;26304;48.794;9.820;2022-09-13T14:45:36;95824.75;;;21.65;58.71
40596;BME280;26304;48.794;9.820;2022-09-13T14:51:22;95820.47;;;21.71;58.48
40596;BME280;26304;48.794;9.820;2022-09-13T14:57:24;95813.47;;;21.61;58.89
40596;BME280;26304;48.794;9.820;2022-09-13T15:03:11;95813.34;;;21.68;59.21
40596;BME280;26304;48.794;9.820;2022-09-13T15:08:58;95804.72;;;21.88;58.55
40596;BME280;26304;48.794;9.820;2022-09-13T15:14:43;95808.50;;;21.87;59.01
40596;BME280;26304;48.794;9.820;2022-09-13T15:20:27;95803.53;;;21.89;58.97
40596;BME280;26304;48.794;9.820;2022-09-13T15:26:11;95803.75;;;21.98;58.70
40596;BME280;26304;48.794;9.820;2022-09-13T15:31:58;95806.69;;;22.04;58.34
40596;BME280;26304;48.794;9.820;2022-09-13T15:37:41;95786.13;;;22.11;58.47
40596;BME280;26304;48.794;9.820;2022-09-13T15:43:23;95778.59;;;22.10;58.33
40596;BME280;26304;48.794;9.820;2022-09-13T15:49:14;95778.59;;;22.10;58.47
40596;BME280;26304;48.794;9.820;2022-09-13T15:54:57;95765.34;;;22.10;58.84
40596;BME280;26304;48.794;9.820;2022-09-13T16:00:39;95763.44;;;22.10;58.38
40596;BME280;26304;48.794;9.820;2022-09-13T16:06:23;95758.91;;;22.11;58.53
40596;BME280;26304;48.794;9.820;2022-09-13T16:12:07;95755.84;;;22.12;58.31
40596;BME280;26304;48.794;9.820;2022-09-13T16:17:49;95754.00;;;22.09;58.20
40596;BME280;26304;48.794;9.820;2022-09-13T16:23:33;95739.34;;;22.25;57.46
40596;BME280;26304;48.794;9.820;2022-09-13T16:29:15;95733.59;;;22.30;56.46
40596;BME280;26304;48.794;9.820;2022-09-13T16:34:58;95732.91;;;22.26;56.82
40596;BME280;26304;48.794;9.820;2022-09-13T16:40:42;95726.94;;;22.02;58.34
40596;BME280;26304;48.794;9.820;2022-09-13T16:46:25;95713.53;;;21.92;58.63
40596;BME280;26304;48.794;9.820;2022-09-13T16:52:09;95719.13;;;21.94;58.14
40596;BME280;26304;48.794;9.820;2022-09-13T16:57:52;95701.16;;;21.86;56.74
40596;BME280;26304;48.794;9.820;2022-09-13T17:03:36;95696.00;;;21.79;56.17
40596;BME280;26304;48.794;9.820;2022-09-13T17:09:18;95704.00;;;21.95;55.67
40596;BME280;26304;48.794;9.820;2022-09-13T17:15:05;95702.41;;;21.81;56.22
40596;BME280;26304;48.794;9.820;2022-09-13T17:20:49;95695.66;;;21.97;54.57
40596;BME280;26304;48.794;9.820;2022-09-13T17:26:31;95698.34;;;22.33;53.06
40596;BME280;26304;48.794;9.820;2022-09-13T17:32:15;95698.75;;;22.31;54.20
40596;BME280;26304;48.794;9.820;2022-09-13T17:37:58;95695.47;;;22.24;54.75
40596;BME280;26304;48.794;9.820;2022-09-13T17:43:41;95693.66;;;22.21;55.19
40596;BME280;26304;48.794;9.820;2022-09-13T17:49:25;95699.31;;;22.23;56.16
40596;BME280;26304;48.794;9.820;2022-09-13T17:55:08;95699.19;;;22.10;57.15
40596;BME280;26304;48.794;9.820;2022-09-13T18:00:50;95710.88;;;21.92;57.64
40596;BME280;26304;48.794;9.820;2022-09-13T18:06:34;95706.44;;;21.86;59.54
40596;BME280;26304;48.794;9.820;2022-09-13T18:12:17;95705.03;;;21.81;60.19
40596;BME280;26304;48.794;9.820;2022-09-13T18:17:59;95702.03;;;21.79;59.27
40596;BME280;26304;48.794;9.820;2022-09-13T18:23:44;95708.22;;;21.72;59.36
40596;BME280;26304;48.794;9.820;2022-09-13T18:29:27;95712.88;;;21.65;59.42
40596;BME280;26304;48.794;9.820;2022-09-13T18:35:11;95705.44;;;21.59;59.37
40596;BME280;26304;48.794;9.820;2022-09-13T18:41:00;95698.72;;;21.55;60.31
40596;BME280;26304;48.794;9.820;2022-09-13T18:46:43;95713.44;;;21.56;61.25
40596;BME280;26304;48.794;9.820;2022-09-13T18:52:26;95721.31;;;21.59;60.12
40596;BME280;26304;48.794;9.820;2022-09-13T18:58:10;95722.66;;;21.68;59.84
40596;BME280;26304;48.794;9.820;2022-09-13T19:03:55;95721.91;;;21.67;60.55
40596;BME280;26304;48.794;9.820;2022-09-13T19:09:38;95720.50;;;21.83;60.62
40596;BME280;26304;48.794;9.820;2022-09-13T19:15:22;95713.28;;;21.63;60.08
40596;BME280;26304;48.794;9.820;2022-09-13T19:21:07;95722.03;;;21.60;59.12
40596;BME280;26304;48.794;9.820;2022-09-13T19:26:50;95736.47;;;21.55;59.02
40596;BME280;26304;48.794;9.820;2022-09-13T19:32:34;95739.06;;;21.35;59.04
40596;BME280;26304;48.794;9.820;2022-09-13T19:38:16;95739.28;;;21.45;59.15
40596;BME280;26304;48.794;9.820;2022-09-13T19:44:00;95724.91;;;21.46;59.25
40596;BME280;26304;48.794;9.820;2022-09-13T19:49:44;95726.06;;;21.45;59.50
40596;BME280;26304;48.794;9.820;2022-09-13T19:55:29;95736.75;;;21.37;59.37
40596;BME280;26304;48.794;9.820;2022-09-13T20:01:15;95736.28;;;21.42;59.46
40596;BME280;26304;48.794;9.820;2022-09-13T20:06:59;95742.19;;;21.30;59.77
40596;BME280;26304;48.794;9.820;2022-09-13T20:12:41;95729.75;;;21.27;59.85
40596;BME280;26304;48.794;9.820;2022-09-13T20:18:24;95731.59;;;21.30;60.19
40596;BME280;26304;48.794;9.820;2022-09-13T20:24:07;95741.47;;;21.26;59.95
40596;BME280;26304;48.794;9.820;2022-09-13T20:29:50;95736.66;;;21.21;60.07
40596;BME280;26304;48.794;9.820;2022-09-13T20:35:35;95727.22;;;21.20;59.88
40596;BME280;26304;48.794;9.820;2022-09-13T20:41:19;95731.03;;;21.19;60.03
40596;BME280;26304;48.794;9.820;2022-09-13T20:47:02;95721.72;;;21.11;60.42
40596;BME280;26304;48.794;9.820;2022-09-13T20:52:45;95714.19;;;21.09;60.53
40596;BME280;26304;48.794;9.820;2022-09-13T20:58:29;95720.28;;;21.06;60.79
40596;BME280;26304;48.794;9.820;2022-09-13T21:04:12;95724.97;;;21.18;60.80
40596;BME280;26304;48.794;9.820;2022-09-13T21:09:54;95712.53;;;21.19;60.63
40596;BME280;26304;48.794;9.820;2022-09-13T21:15:41;95708.72;;;21.20;61.08
40596;BME280;26304;48.794;9.820;2022-09-13T21:21:26;95713.44;;;21.09;61.64
40596;BME280;26304;48.794;9.820;2022-09-13T21:27:09;95709.41;;;21.00;62.23
40596;BME280;26304;48.794;9.820;2022-09-13T21:32:53;95702.28;;;20.97;62.62
40596;BME280;26304;48.794;9.820;2022-09-13T21:38:36;95693.91;;;21.02;62.92
40596;BME280;26304;48.794;9.820;2022-09-13T21:44:19;95687.59;;;20.96;62.97
40596;BME280;26304;48.794;9.820;2022-09-13T21:50:03;95679.88;;;21.05;62.97
40596;BME280;26304;48.794;9.820;2022-09-13T21:55:45;95689.31;;;21.07;63.11
40596;BME280;26304;48.794;9.820;2022-09-13T22:01:30;95672.75;;;21.02;63.19
40596;BME280;26304;48.794;9.820;2022-09-13T22:07:14;95672.75;;;21.02;63.35
40596;BME280;26304;48.794;9.820;2022-09-13T22:12:57;95686.03;;;20.99;63.29
40596;BME280;26304;48.794;9.820;2022-09-13T22:18:39;95683.94;;;20.90;63.54
40596;BME280;26304;48.794;9.820;2022-09-13T22:24:24;95677.94;;;20.86;63.57
40596;BME280;26304;48.794;9.820;2022-09-13T22:30:08;95669.63;;;20.88;63.63
40596;BME280;26304;48.794;9.820;2022-09-13T22:35:57;95649.22;;;20.88;63.43
40596;BME280;26304;48.794;9.820;2022-09-13T22:41:41;95646.19;;;20.90;63.04
40596;BME280;26304;48.794;9.820;2022-09-13T22:47:24;95643.13;;;20.91;63.37
40596;BME280;26304;48.794;9.820;2022-09-13T22:53:06;95631.53;;;20.85;63.43
40596;BME280;26304;48.794;9.820;2022-09-13T22:58:53;95615.13;;;20.74;63.91
40596;BME280;26304;48.794;9.820;2022-09-13T23:04:35;95613.56;;;20.76;63.97
40596;BME280;26304;48.794;9.820;2022-09-13T23:10:18;95616.44;;;20.85;63.39
40596;BME280;26304;48.794;9.820;2022-09-13T23:16:02;95627.28;;;20.91;63.46
40596;BME280;26304;48.794;9.820;2022-09-13T23:21:45;95618.53;;;20.94;63.42
40596;BME280;26304;48.794;9.820;2022-09-13T23:27:27;95617.34;;;20.75;64.23
40596;BME280;26304;48.794;9.820;2022-09-13T23:33:12;95609.81;;;20.74;64.46
40596;BME280;26304;48.794;9.820;2022-09-13T23:38:55;95604.72;;;20.86;64.23
40596;BME280;26304;48.794;9.820;2022-09-13T23:44:38;95602.84;;;20.87;64.09
40596;BME280;26304;48.794;9.820;2022-09-13T23:50:22;95592.03;;;20.78;64.44
40596;BME280;26304;48.794;9.820;2022-09-13T23:56:05;95580.59;;;20.84;64.34
